Time;durP1;ratioP1;P1;durP2;ratioP2;P2;SDS_P1;SDS_P2;PMS_P1;PMS_P2;Temp;Humidity;BMP_temperature;BMP_pressure;BME280_temperature;BME280_humidity;BME280_pressure;Samples;Min_cycle;Max_cycle;Signal;HPM_P1;HPM_P2
2024/03/06 00:01:25;;;;;;;3.33;0.93;;;;;;;0.26;91.94;101483.84;5074877;28;20532;-70
2024/03/06 00:03:52;;;;;;;7.50;3.87;;;;;;;0.16;93.69;101484.31;5074823;28;20492;-70
2024/03/06 00:06:18;;;;;;;5.43;3.17;;;;;;;0.13;94.24;101487.38;5075183;28;20490;-70
2024/03/06 00:08:46;;;;;;;5.97;2.77;;;;;;;0.10;94.52;101490.47;5074855;28;20437;-70
2024/03/06 00:11:13;;;;;;;4.33;2.53;;;;;;;0.14;94.67;101491.69;5074898;28;20448;-70
2024/03/06 00:13:39;;;;;;;3.37;1.97;;;;;;;0.28;93.53;101504.97;5074328;28;20491;-70
2024/03/06 00:16:06;;;;;;;6.03;2.20;;;;;;;0.25;94.25;101509.69;5073891;28;20948;-69
2024/03/06 00:18:33;;;;;;;8.33;3.30;;;;;;;0.38;93.71;101516.00;5074535;28;20519;-69
2024/03/06 00:20:59;;;;;;;4.13;2.40;;;;;;;0.31;93.28;101512.53;5074536;28;20442;-69
2024/03/06 00:23:26;;;;;;;2.00;1.00;;;;;;;0.29;93.01;101515.41;5074427;28;20457;-69
2024/03/06 00:25:54;;;;;;;2.10;1.10;;;;;;;0.29;92.94;101526.06;5074374;28;20480;-70
2024/03/06 00:28:21;;;;;;;6.03;2.37;;;;;;;0.17;92.33;101520.56;5074068;28;20879;-69
2024/03/06 00:30:48;;;;;;;3.40;1.57;;;;;;;0.20;92.83;101519.34;5074195;28;20444;-69
2024/03/06 00:33:14;;;;;;;2.47;1.37;;;;;;;0.07;91.44;101525.50;5073784;28;20931;-70
2024/03/06 00:35:41;;;;;;;3.80;1.30;;;;;;;-0.01;92.27;101536.38;5074157;28;20444;-70
2024/03/06 00:38:07;;;;;;;4.93;2.10;;;;;;;-0.06;92.39;101528.19;5074480;28;20468;-70
2024/03/06 00:40:34;;;;;;;4.77;2.33;;;;;;;-0.08;91.55;101541.72;5074237;28;20483;-70
2024/03/06 00:43:02;;;;;;;3.23;1.43;;;;;;;-0.07;91.58;101537.22;5074039;28;20485;-70
2024/03/06 00:45:29;;;;;;;9.03;2.07;;;;;;;0.06;91.27;101547.84;5074647;28;20438;-70
2024/03/06 00:47:55;;;;;;;2.83;1.30;;;;;;;0.05;91.25;101550.72;5073979;28;20455;-70
2024/03/06 00:50:22;;;;;;;15.80;5.60;;;;;;;-0.03;90.81;101546.44;5074341;28;20520;-69
2024/03/06 00:52:49;;;;;;;9.30;2.80;;;;;;;-0.09;91.27;101556.06;5073910;28;20489;-70
2024/03/06 00:55:16;;;;;;;3.30;1.83;;;;;;;-0.01;91.20;101553.16;5074119;28;20433;-70
2024/03/06 00:57:43;;;;;;;4.50;2.17;;;;;;;-0.08;90.17;101554.22;5073518;28;20943;-70
2024/03/06 01:00:12;;;;;;;5.47;2.93;;;;;;;0.00;90.28;101556.69;5074185;28;20480;-70
2024/03/06 01:02:39;;;;;;;3.17;0.93;;;;;;;-0.03;90.49;101557.91;5074026;28;20457;-70
2024/03/06 01:05:06;;;;;;;3.53;1.90;;;;;;;-0.07;90.68;101558.53;5073479;28;20486;-70
2024/03/06 01:07:34;;;;;;;1.80;0.77;;;;;;;-0.11;90.96;101565.28;5073717;28;20473;-70
2024/03/06 01:10:02;;;;;;;2.27;0.90;;;;;;;-0.04;89.99;101566.09;5073759;28;20452;-70
2024/03/06 01:12:29;;;;;;;5.87;3.10;;;;;;;-0.02;89.59;101561.38;5073571;28;20840;-70
2024/03/06 01:14:55;;;;;;;4.83;1.37;;;;;;;-0.07;90.79;101558.53;5073586;28;20451;-70
2024/03/06 01:17:23;;;;;;;2.57;1.20;;;;;;;-0.20;93.38;101563.84;5073205;28;20453;-70
2024/03/06 01:19:50;;;;;;;4.30;1.83;;;;;;;-0.26;92.93;101565.50;5074111;28;20520;-70
2024/03/06 01:22:17;;;;;;;4.13;1.30;;;;;;;-0.27;93.89;101570.00;5121543;22;20490;-68
2024/03/06 01:24:43;;;;;;;4.60;2.50;;;;;;;-0.20;93.81;101563.84;5093857;28;20472;-68
2024/03/06 01:27:10;;;;;;;4.40;1.13;;;;;;;-0.08;92.86;101564.88;5093727;28;20472;-68
2024/03/06 01:29:37;;;;;;;5.80;3.40;;;;;;;-0.12;93.19;101571.63;5093086;28;20436;-68
2024/03/06 01:32:04;;;;;;;3.17;2.07;;;;;;;-0.20;93.98;101567.31;5093877;28;20484;-68
2024/03/06 01:34:31;;;;;;;4.13;2.27;;;;;;;-0.18;94.11;101567.09;5093585;28;20902;-69
2024/03/06 01:36:58;;;;;;;2.20;1.30;;;;;;;-0.16;94.03;101571.22;5093661;28;20531;-69
2024/03/06 01:39:25;;;;;;;2.73;2.00;;;;;;;-0.16;93.57;101570.41;5093748;28;20535;-68
2024/03/06 01:41:52;;;;;;;7.10;4.10;;;;;;;-0.19;94.22;101568.16;5093258;28;20437;-68
2024/03/06 01:44:19;;;;;;;4.33;3.37;;;;;;;-0.28;95.01;101571.00;5093338;28;20867;-69
2024/03/06 01:46:46;;;;;;;7.27;2.30;;;;;;;-0.29;93.89;101573.88;5093551;28;20936;-68
2024/03/06 01:49:14;;;;;;;6.60;3.00;;;;;;;-0.31;92.82;101579.41;5093915;28;20438;-69
2024/03/06 01:51:46;;;;;;;3.43;2.40;;;;;;;-0.41;92.18;101581.66;5093900;28;20429;-67
2024/03/06 01:54:12;;;;;;;9.27;3.20;;;;;;;-0.42;92.07;101588.00;5093523;28;20464;-71
2024/03/06 01:56:44;;;;;;;6.37;3.57;;;;;;;-0.47;90.72;101584.31;5093756;28;20602;-71
2024/03/06 01:59:11;;;;;;;3.23;1.47;;;;;;;-0.46;91.02;101581.44;5093520;28;20856;-70
2024/03/06 02:01:38;;;;;;;2.03;0.63;;;;;;;-0.53;91.76;101580.63;5093181;28;20528;-70
2024/03/06 02:04:06;;;;;;;6.33;3.93;;;;;;;-0.50;92.23;101582.88;5093811;28;20458;-70
2024/03/06 02:06:33;;;;;;;5.33;3.23;;;;;;;-0.50;92.43;101585.53;5093163;28;20475;-70
2024/03/06 02:09:01;;;;;;;7.40;1.90;;;;;;;-0.56;92.25;101587.16;5093440;28;20446;-70
2024/03/06 02:11:28;;;;;;;2.87;1.97;;;;;;;-0.58;91.57;101591.03;5093273;28;20808;-70
2024/03/06 02:13:54;;;;;;;3.27;1.30;;;;;;;-0.60;91.49;101585.94;5093372;28;20561;-70
2024/03/06 02:16:21;;;;;;;3.83;1.50;;;;;;;-0.66;93.45;101586.75;5093303;28;20810;-70
2024/03/06 02:18:54;;;;;;;3.33;1.03;;;;;;;-0.70;93.83;101588.16;5093742;28;20535;-70
2024/03/06 02:21:23;;;;;;;4.63;1.50;;;;;;;-0.65;93.75;101587.56;5093047;28;20486;-70
2024/03/06 02:23:51;;;;;;;4.97;1.30;;;;;;;-0.49;93.37;101589.00;5093601;28;20863;-70
2024/03/06 02:26:17;;;;;;;8.40;2.10;;;;;;;-0.53;93.33;101592.09;5093454;28;20483;-70
2024/03/06 02:28:49;;;;;;;2.47;1.13;;;;;;;-0.60;92.15;101590.44;5093583;28;20440;-69
2024/03/06 02:31:16;;;;;;;5.30;2.20;;;;;;;-0.60;91.49;101595.75;5093575;28;20424;-70
2024/03/06 02:33:43;;;;;;;2.23;1.10;;;;;;;-0.58;90.96;101588.38;5093423;28;20484;-70
2024/03/06 02:36:09;;;;;;;4.50;1.17;;;;;;;-0.65;91.41;101595.53;5093614;28;20440;-70
2024/03/06 02:38:37;;;;;;;1.70;0.50;;;;;;;-0.70;92.96;101595.34;5093556;28;20854;-70
2024/03/06 02:41:06;;;;;;;6.63;2.10;;;;;;;-0.64;93.17;101599.84;5096311;28;20940;-70
2024/03/06 02:43:33;;;;;;;4.57;1.73;;;;;;;-0.47;92.39;101597.63;5096791;28;20458;-70
2024/03/06 02:45:59;;;;;;;2.90;1.23;;;;;;;-0.57;92.47;101598.03;5096803;28;20443;-70
2024/03/06 02:48:26;;;;;;;1.97;0.93;;;;;;;-0.51;92.09;101599.88;5096474;28;21007;-70
2024/03/06 02:50:53;;;;;;;3.10;1.77;;;;;;;-0.46;91.89;101601.91;5097172;28;20532;-69
2024/03/06 02:53:20;;;;;;;3.53;1.90;;;;;;;-0.61;93.36;101597.59;5096409;28;20488;-69
2024/03/06 02:55:48;;;;;;;3.80;2.67;;;;;;;-0.69;94.15;101595.13;5078452;28;20447;-69
2024/03/06 02:58:16;;;;;;;9.40;2.20;;;;;;;-0.70;94.19;101601.47;5096660;28;20487;-69
2024/03/06 03:00:43;;;;;;;5.30;3.40;;;;;;;-0.57;93.74;101600.69;5096271;28;20444;-69
2024/03/06 03:03:11;;;;;;;3.80;2.20;;;;;;;-0.68;93.88;101595.94;5096462;28;20459;-69
2024/03/06 03:05:38;;;;;;;4.90;2.50;;;;;;;-0.76;94.02;101603.06;5096833;28;20807;-69
2024/03/06 03:08:06;;;;;;;3.97;2.90;;;;;;;-0.78;94.32;101604.31;5096452;28;20447;-69
2024/03/06 03:10:34;;;;;;;4.43;2.00;;;;;;;-0.78;93.33;101610.44;5096384;28;20523;-70
2024/03/06 03:13:04;;;;;;;2.80;1.67;;;;;;;-0.70;92.02;101613.94;5096400;28;20453;-70
2024/03/06 03:15:32;;;;;;;7.57;2.97;;;;;;;-0.87;90.76;101614.31;5096514;28;20428;-70
2024/03/06 03:17:59;;;;;;;3.10;1.27;;;;;;;-0.98;91.83;101620.19;5096006;28;20446;-70
2024/03/06 03:20:25;;;;;;;3.30;1.80;;;;;;;-0.95;90.80;101624.28;5096264;28;20515;-70
2024/03/06 03:22:52;;;;;;;4.17;1.20;;;;;;;-1.00;91.52;101627.56;5095915;28;20559;-70
2024/03/06 03:25:21;;;;;;;1.93;0.83;;;;;;;-1.01;91.33;101628.56;5096122;28;20983;-70
2024/03/06 03:27:48;;;;;;;2.30;1.30;;;;;;;-1.04;92.49;101628.97;5096103;28;20475;-70
2024/03/06 03:30:16;;;;;;;2.53;1.27;;;;;;;-1.04;93.09;101624.47;5096966;28;20501;-70
2024/03/06 03:32:43;;;;;;;2.77;1.67;;;;;;;-1.02;93.68;101632.22;5095971;28;20495;-70
2024/03/06 03:35:10;;;;;;;3.87;1.93;;;;;;;-0.95;92.92;101629.63;5099261;28;20481;-70
2024/03/06 03:37:36;;;;;;;2.83;2.00;;;;;;;-1.00;93.10;101632.06;5096276;28;20479;-70
2024/03/06 03:40:03;;;;;;;5.07;2.27;;;;;;;-1.00;92.67;101640.84;5095701;28;20987;-70
2024/03/06 03:42:30;;;;;;;2.00;0.90;;;;;;;-1.05;94.33;101635.31;5096135;28;20486;-70
2024/03/06 03:44:56;;;;;;;7.00;3.40;;;;;;;-1.01;93.12;101636.56;5095930;28;20468;-70
2024/03/06 03:47:24;;;;;;;1.90;0.90;;;;;;;-1.06;92.00;101639.00;5096274;28;20539;-70
2024/03/06 03:49:51;;;;;;;2.30;0.93;;;;;;;-1.13;91.93;101638.13;5095974;28;20451;-70
2024/03/06 03:52:17;;;;;;;2.27;1.23;;;;;;;-1.02;90.19;101640.22;5095261;28;20495;-70
2024/03/06 03:54:45;;;;;;;4.03;1.50;;;;;;;-1.08;89.93;101636.50;5095224;28;21021;-70
2024/03/06 03:57:14;;;;;;;2.63;1.50;;;;;;;-1.14;91.69;101642.63;5095754;28;20439;-70
2024/03/06 03:59:41;;;;;;;2.63;1.57;;;;;;;-1.13;92.29;101654.06;5095396;28;20450;-70
2024/03/06 04:02:07;;;;;;;4.73;3.40;;;;;;;-1.18;92.85;101652.00;5095613;28;20461;-71
2024/03/06 04:04:35;;;;;;;2.80;1.90;;;;;;;-1.23;92.58;101653.63;5095417;28;21019;-71
2024/03/06 04:07:02;;;;;;;3.37;1.40;;;;;;;-1.27;91.82;101653.19;5095085;28;20937;-70
2024/03/06 04:09:28;;;;;;;2.10;0.80;;;;;;;-1.29;92.69;101645.41;5094935;28;20974;-70
2024/03/06 04:11:55;;;;;;;2.87;1.53;;;;;;;-1.27;93.58;101654.00;5095243;28;20493;-70
2024/03/06 04:14:22;;;;;;;1.67;0.53;;;;;;;-1.26;92.94;101660.13;5095095;28;20485;-70
2024/03/06 04:16:49;;;;;;;4.50;2.97;;;;;;;-1.16;91.71;101659.78;5095077;28;20489;-70
2024/03/06 04:19:15;;;;;;;4.00;1.40;;;;;;;-1.25;90.48;101660.97;5094991;28;20444;-70
2024/03/06 04:21:44;;;;;;;4.87;1.67;;;;;;;-1.32;91.55;101656.44;5094676;28;20460;-70
2024/03/06 04:24:11;;;;;;;6.90;1.53;;;;;;;-1.40;92.35;101661.91;5094571;28;20420;-70
2024/03/06 04:26:37;;;;;;;7.70;2.80;;;;;;;-1.42;93.60;101660.44;5094825;28;20458;-70
2024/03/06 04:29:04;;;;;;;2.00;0.90;;;;;;;-1.38;93.40;101662.50;5095103;28;20432;-70
2024/03/06 04:31:31;;;;;;;4.23;1.37;;;;;;;-1.36;93.91;101668.47;5094970;28;20773;-70
2024/03/06 04:33:57;;;;;;;5.20;2.00;;;;;;;-1.36;94.48;101660.50;5094501;28;20489;-70
2024/03/06 04:36:24;;;;;;;4.23;2.13;;;;;;;-1.41;94.95;101662.94;5094990;28;20473;-70
2024/03/06 04:38:52;;;;;;;2.40;1.50;;;;;;;-1.40;95.12;101661.91;5094227;28;20436;-70
2024/03/06 04:41:19;;;;;;;3.73;1.87;;;;;;;-1.35;95.39;101663.97;5094487;28;20441;-70
2024/03/06 04:43:46;;;;;;;5.97;2.47;;;;;;;-1.41;94.81;101670.09;5094339;28;20487;-70
2024/03/06 04:46:14;;;;;;;1.60;0.37;;;;;;;-1.30;94.35;101666.88;5094138;28;20527;-71
2024/03/06 04:48:41;;;;;;;3.43;1.97;;;;;;;-1.25;93.81;101663.63;5094282;28;20528;-69
2024/03/06 04:51:09;;;;;;;2.03;1.00;;;;;;;-1.29;94.16;101666.66;5094313;28;20480;-71
2024/03/06 04:53:36;;;;;;;4.87;3.23;;;;;;;-1.32;94.35;101677.69;5093804;28;20976;-68
2024/03/06 04:56:04;;;;;;;5.03;1.97;;;;;;;-1.37;94.76;101679.31;5094425;28;20487;-69
2024/03/06 04:58:31;;;;;;;3.23;1.30;;;;;;;-1.40;94.19;101674.38;5094157;28;20442;-70
2024/03/06 05:00:58;;;;;;;2.77;1.53;;;;;;;-1.45;93.67;101676.78;5093861;28;20815;-71
2024/03/06 05:03:24;;;;;;;2.63;1.30;;;;;;;-1.50;93.92;101672.06;5093216;28;20535;-71
2024/03/06 05:05:51;;;;;;;2.07;1.07;;;;;;;-1.53;93.84;101685.72;5094315;28;20436;-72
2024/03/06 05:08:18;;;;;;;4.07;2.40;;;;;;;-1.52;93.71;101682.06;5094347;28;20524;-71
2024/03/06 05:10:45;;;;;;;2.50;1.17;;;;;;;-1.55;92.98;101690.41;5094358;28;20854;-70
2024/03/06 05:13:13;;;;;;;2.90;1.00;;;;;;;-1.63;91.98;101690.56;5094084;28;20539;-70
2024/03/06 05:15:39;;;;;;;1.67;0.50;;;;;;;-1.67;92.36;101697.28;5094287;28;20480;-70
2024/03/06 05:18:08;;;;;;;3.33;1.40;;;;;;;-1.67;93.50;101690.13;5094458;28;20445;-70
2024/03/06 05:20:34;;;;;;;5.07;1.10;;;;;;;-1.70;93.17;101697.66;5093870;28;20448;-70
2024/03/06 05:23:01;;;;;;;2.80;1.63;;;;;;;-1.58;93.10;101699.59;5093792;28;20574;-70
2024/03/06 05:25:28;;;;;;;2.33;1.03;;;;;;;-1.57;93.07;101695.91;5094388;28;20508;-71
2024/03/06 05:27:54;;;;;;;2.53;1.33;;;;;;;-1.57;92.68;101703.88;5093812;28;20513;-71
2024/03/06 05:30:22;;;;;;;2.87;1.53;;;;;;;-1.71;92.18;101714.59;5093741;28;20436;-71
2024/03/06 05:32:49;;;;;;;1.77;0.70;;;;;;;-1.73;91.79;101706.81;5093770;28;20544;-71
2024/03/06 05:35:15;;;;;;;1.60;0.40;;;;;;;-1.61;91.49;101720.41;5093770;28;20518;-71
2024/03/06 05:37:44;;;;;;;4.00;2.67;;;;;;;-1.71;92.20;101719.91;5093443;28;20935;-71
2024/03/06 05:40:12;;;;;;;6.17;1.73;;;;;;;-1.71;93.03;101719.91;5093691;28;20516;-71
2024/03/06 05:42:39;;;;;;;2.67;1.90;;;;;;;-1.74;93.49;101717.63;5093525;28;20831;-70
2024/03/06 05:45:10;;;;;;;3.03;1.43;;;;;;;-1.72;93.18;101718.28;5093656;28;20469;-70
2024/03/06 05:47:38;;;;;;;3.03;1.23;;;;;;;-1.71;92.84;101730.53;5093768;28;20769;-69
2024/03/06 05:50:06;;;;;;;6.00;2.10;;;;;;;-1.66;93.64;101723.63;5094346;28;20431;-69
2024/03/06 05:52:33;;;;;;;2.03;1.07;;;;;;;-1.68;94.17;101730.13;5093212;28;20463;-68
2024/03/06 05:55:00;;;;;;;5.43;2.80;;;;;;;-1.71;94.85;101735.84;5093304;28;20487;-69
2024/03/06 05:57:27;;;;;;;1.80;0.90;;;;;;;-1.62;95.29;101740.00;5093464;28;20447;-68
2024/03/06 05:59:54;;;;;;;4.60;1.40;;;;;;;-1.66;95.00;101739.56;5093059;28;20436;-68
2024/03/06 06:02:22;;;;;;;2.17;1.20;;;;;;;-1.68;95.18;101735.44;5093343;28;20468;-69
2024/03/06 06:04:50;;;;;;;2.00;0.80;;;;;;;-1.67;94.31;101747.75;5093430;28;20447;-68
2024/03/06 06:07:16;;;;;;;1.70;0.50;;;;;;;-1.58;93.17;101750.06;5093732;28;20531;-69
2024/03/06 06:09:43;;;;;;;2.80;1.67;;;;;;;-1.49;91.68;101766.69;5093749;28;20440;-69
2024/03/06 06:12:09;;;;;;;8.27;3.03;;;;;;;-1.48;91.22;101760.34;5093335;28;20460;-69
2024/03/06 06:14:36;;;;;;;6.03;1.23;;;;;;;-1.61;91.18;101758.41;5094026;28;20483;-69
2024/03/06 06:17:03;;;;;;;11.23;3.27;;;;;;;-1.59;92.59;101759.06;5097330;28;20468;-70
2024/03/06 06:19:30;;;;;;;6.93;2.00;;;;;;;-1.62;92.46;101770.03;5097196;28;20440;-69
2024/03/06 06:21:59;;;;;;;2.10;0.70;;;;;;;-1.53;93.60;101776.03;5097281;28;20451;-69
2024/03/06 06:24:26;;;;;;;2.67;1.03;;;;;;;-1.59;94.37;101771.50;5097118;28;20436;-69
2024/03/06 06:26:52;;;;;;;7.30;1.87;;;;;;;-1.60;94.63;101769.84;5097418;28;20468;-69
2024/03/06 06:29:19;;;;;;;4.33;1.10;;;;;;;-1.61;94.92;101773.53;5096863;28;20523;-68
2024/03/06 06:31:46;;;;;;;2.00;0.67;;;;;;;-1.54;94.98;101775.22;5097205;28;20446;-69
2024/03/06 06:34:12;;;;;;;5.07;2.13;;;;;;;-1.45;94.53;101775.91;5097310;28;20874;-68
2024/03/06 06:36:40;;;;;;;2.20;0.60;;;;;;;-1.40;94.57;101776.16;5097117;28;20535;-68
2024/03/06 06:39:10;;;;;;;2.13;1.13;;;;;;;-1.37;94.94;101785.59;5096931;28;20440;-68
2024/03/06 06:41:36;;;;;;;2.97;1.67;;;;;;;-1.34;95.21;101782.53;5097406;28;20440;-68
2024/03/06 06:44:03;;;;;;;3.83;1.13;;;;;;;-1.33;97.18;101777.03;5097100;28;20572;-68
2024/03/06 06:46:31;;;;;;;6.50;3.03;;;;;;;-1.20;97.79;101776.28;5096601;28;20455;-68
2024/03/06 06:48:58;;;;;;;2.87;1.50;;;;;;;-1.14;98.52;101785.34;5096949;28;20451;-68
2024/03/06 06:51:25;;;;;;;2.90;1.10;;;;;;;-1.07;99.40;101781.69;5096651;28;20925;-68
2024/03/06 06:53:51;;;;;;;3.07;1.37;;;;;;;-1.00;99.70;101791.59;5096580;28;20483;-68
2024/03/06 06:56:22;;;;;;;3.83;1.97;;;;;;;-0.87;100.00;101797.81;5096395;28;20618;-68
2024/03/06 06:58:48;;;;;;;4.90;2.57;;;;;;;-0.71;100.00;101807.28;5096110;28;20429;-69
2024/03/06 07:01:16;;;;;;;8.80;3.60;;;;;;;-0.60;99.51;101803.28;5096843;28;20772;-70
2024/03/06 07:03:43;;;;;;;2.70;1.63;;;;;;;-0.51;100.00;101808.22;5096567;28;20490;-70
2024/03/06 07:06:10;;;;;;;3.33;1.60;;;;;;;-0.35;100.00;101814.25;5096480;28;20524;-70
2024/03/06 07:08:37;;;;;;;5.30;1.47;;;;;;;-0.31;99.72;101808.34;5096284;28;20539;-69
2024/03/06 07:11:05;;;;;;;4.63;2.07;;;;;;;-0.27;100.00;101817.56;5096292;28;20428;-69
2024/03/06 07:13:33;;;;;;;3.40;1.20;;;;;;;-0.16;99.97;101810.84;5096480;28;20463;-70
2024/03/06 07:15:59;;;;;;;3.77;1.47;;;;;;;-0.16;98.79;101810.84;5096197;28;20996;-70
2024/03/06 07:18:26;;;;;;;1.60;0.40;;;;;;;-0.09;98.88;101811.69;5095908;28;20448;-69
2024/03/06 07:20:53;;;;;;;2.87;1.77;;;;;;;0.03;99.12;101819.91;5096115;28;20498;-67
2024/03/06 07:23:20;;;;;;;3.80;2.50;;;;;;;-0.05;99.02;101820.91;5074030;22;21017;-67
2024/03/06 07:25:46;;;;;;;3.03;2.03;;;;;;;0.05;99.30;101833.84;5055094;28;20522;-65
2024/03/06 07:28:13;;;;;;;5.20;1.13;;;;;;;0.17;99.20;101832.22;5054885;28;20925;-66
2024/03/06 07:30:41;;;;;;;2.83;2.03;;;;;;;0.28;99.30;101838.00;5056042;28;20470;-67
2024/03/06 07:33:08;;;;;;;8.37;3.63;;;;;;;0.33;99.74;101835.56;5055656;28;20494;-67
2024/03/06 07:35:36;;;;;;;4.93;2.63;;;;;;;0.40;100.00;101836.38;5055984;28;20482;-67
2024/03/06 07:38:04;;;;;;;4.00;1.57;;;;;;;0.44;100.00;101843.78;5055476;28;20448;-66
2024/03/06 07:40:31;;;;;;;8.27;2.83;;;;;;;0.52;100.00;101848.09;5056240;28;20449;-68
2024/03/06 07:42:57;;;;;;;3.83;2.17;;;;;;;0.67;100.00;101851.41;5055453;28;20587;-68
2024/03/06 07:45:24;;;;;;;5.47;1.73;;;;;;;0.79;100.00;101846.25;5055529;28;20437;-65
2024/03/06 07:47:52;;;;;;;4.17;2.17;;;;;;;0.96;100.00;101852.00;5055431;28;20442;-65
2024/03/06 07:50:19;;;;;;;6.13;2.67;;;;;;;1.12;100.00;101846.28;5055243;28;20525;-65
2024/03/06 07:52:46;;;;;;;3.90;2.30;;;;;;;1.35;100.00;101858.34;5055048;28;20469;-65
2024/03/06 07:55:13;;;;;;;10.80;3.90;;;;;;;1.59;100.00;101863.00;5055009;28;20481;-66
2024/03/06 07:57:39;;;;;;;4.53;2.33;;;;;;;1.76;100.00;101858.03;5055086;28;20452;-67
2024/03/06 08:00:14;;;;;;;7.47;3.43;;;;;;;1.88;100.00;101860.88;5055192;28;20956;-66
2024/03/06 08:02:42;;;;;;;4.57;2.27;;;;;;;2.04;100.00;101865.75;5055287;28;20467;-66
2024/03/06 08:05:12;;;;;;;3.83;2.10;;;;;;;2.19;100.00;101873.47;5055234;28;20477;-67
2024/03/06 08:07:41;;;;;;;4.97;3.27;;;;;;;2.32;100.00;101872.59;5055215;28;20442;-65
2024/03/06 08:10:09;;;;;;;3.90;1.17;;;;;;;2.45;100.00;101872.50;5054867;28;20442;-66
2024/03/06 08:12:36;;;;;;;5.50;2.73;;;;;;;2.58;100.00;101872.44;5054616;28;20496;-66
2024/03/06 08:15:02;;;;;;;4.20;3.23;;;;;;;2.72;100.00;101873.16;5054723;28;20524;-66
2024/03/06 08:17:29;;;;;;;6.03;2.63;;;;;;;2.82;100.00;101876.16;5055307;28;20446;-66
2024/03/06 08:19:56;;;;;;;8.57;3.40;;;;;;;2.97;100.00;101882.03;5054772;28;20438;-66
2024/03/06 08:22:24;;;;;;;20.63;4.60;;;;;;;3.10;100.00;101881.09;5054086;28;21004;-66
2024/03/06 08:24:50;;;;;;;9.37;4.83;;;;;;;3.21;100.00;101883.03;5054250;28;21026;-66
2024/03/06 08:27:17;;;;;;;7.90;3.90;;;;;;;3.32;100.00;101888.72;5054190;28;20474;-69
2024/03/06 08:29:43;;;;;;;8.70;4.93;;;;;;;3.43;100.00;101888.00;5054620;28;20488;-69
2024/03/06 08:32:10;;;;;;;9.33;5.63;;;;;;;3.58;100.00;101893.81;5054297;28;20464;-69
2024/03/06 08:34:37;;;;;;;8.20;4.40;;;;;;;3.70;100.00;101896.56;5054764;28;20466;-69
2024/03/06 08:37:03;;;;;;;6.67;3.10;;;;;;;3.78;100.00;101902.47;5054246;28;20984;-69
2024/03/06 08:39:32;;;;;;;3.90;2.50;;;;;;;3.86;100.00;101900.53;5054369;28;20458;-69
2024/03/06 08:42:00;;;;;;;9.47;4.07;;;;;;;3.92;100.00;101905.00;5054756;28;20494;-69
2024/03/06 08:44:27;;;;;;;7.13;4.50;;;;;;;4.08;100.00;101904.41;5054585;28;20438;-69
2024/03/06 08:46:54;;;;;;;5.80;3.57;;;;;;;4.17;100.00;101908.41;5054524;28;20533;-70
2024/03/06 08:49:21;;;;;;;5.60;3.60;;;;;;;4.22;100.00;101911.22;5054214;28;20480;-70
2024/03/06 08:51:47;;;;;;;5.77;4.43;;;;;;;4.36;100.00;101906.50;5053854;28;20880;-70
2024/03/06 08:54:14;;;;;;;7.30;4.30;;;;;;;4.50;100.00;101907.16;5054157;28;20488;-69
2024/03/06 08:56:44;;;;;;;7.30;3.70;;;;;;;4.52;100.00;101913.94;5059980;28;20735;-70
2024/03/06 08:59:11;;;;;;;6.97;4.03;;;;;;;4.56;99.94;101908.94;5072947;28;20442;-70
2024/03/06 09:01:37;;;;;;;9.30;4.20;;;;;;;4.62;99.49;101910.69;5062487;28;20438;-70
2024/03/06 09:04:04;;;;;;;6.57;3.17;;;;;;;4.70;99.14;101912.25;5053960;28;21038;-70
2024/03/06 09:06:31;;;;;;;5.53;3.57;;;;;;;4.85;98.89;101922.53;5054293;28;20526;-70
2024/03/06 09:08:57;;;;;;;6.40;3.30;;;;;;;4.96;98.41;101917.22;5053530;28;20965;-70
2024/03/06 09:11:24;;;;;;;7.40;4.17;;;;;;;5.05;97.57;101917.69;5054637;28;20439;-70
2024/03/06 09:13:52;;;;;;;6.43;4.30;;;;;;;5.12;96.34;101921.06;5053632;28;20890;-69
2024/03/06 09:16:18;;;;;;;7.80;4.00;;;;;;;5.22;95.93;101918.66;5053902;28;20486;-69
2024/03/06 09:18:45;;;;;;;6.70;2.73;;;;;;;5.36;95.77;101918.41;5053708;28;20528;-72
2024/03/06 09:21:12;;;;;;;6.80;3.17;;;;;;;5.44;95.25;101918.88;5053235;28;20533;-69
2024/03/06 09:23:38;;;;;;;7.30;3.37;;;;;;;5.53;94.32;101928.25;5053875;28;20462;-69
2024/03/06 09:26:05;;;;;;;8.63;4.00;;;;;;;5.61;93.46;101923.56;5053225;28;21001;-69
2024/03/06 09:28:32;;;;;;;7.20;2.90;;;;;;;5.70;93.09;101927.53;5053221;28;20949;-69
2024/03/06 09:31:01;;;;;;;7.30;3.90;;;;;;;5.76;91.76;101929.28;5053420;28;20500;-69
2024/03/06 09:33:27;;;;;;;6.73;2.33;;;;;;;5.83;90.29;101929.97;5053735;28;20469;-69
2024/03/06 09:35:57;;;;;;;7.50;3.90;;;;;;;5.96;90.26;101927.03;5053303;28;20489;-69
2024/03/06 09:38:23;;;;;;;7.47;3.40;;;;;;;6.13;89.80;101929.81;5053591;28;20442;-70
2024/03/06 09:40:51;;;;;;;6.83;3.77;;;;;;;6.22;87.84;101933.78;5053739;28;20526;-70
2024/03/06 09:43:17;;;;;;;6.50;3.37;;;;;;;6.41;86.53;101938.97;5053602;28;20466;-70
2024/03/06 09:45:49;;;;;;;7.20;3.23;;;;;;;6.62;85.71;101938.31;5053664;28;20453;-70
2024/03/06 09:48:19;;;;;;;11.27;3.30;;;;;;;6.64;83.92;101943.44;5052988;28;20430;-69
2024/03/06 09:50:47;;;;;;;10.13;4.00;;;;;;;6.83;84.65;101936.81;5055779;28;20429;-70
2024/03/06 09:53:16;;;;;;;5.57;3.13;;;;;;;7.04;83.49;101943.38;5057033;28;20496;-70
2024/03/06 09:55:44;;;;;;;6.43;2.87;;;;;;;7.07;81.70;101946.38;5057400;28;20485;-70
2024/03/06 09:58:10;;;;;;;6.97;3.77;;;;;;;7.21;81.16;101949.56;5057646;28;20500;-70
2024/03/06 10:00:37;;;;;;;8.80;3.27;;;;;;;7.27;80.00;101945.91;5057580;28;20469;-70
2024/03/06 10:03:05;;;;;;;8.43;3.27;;;;;;;7.34;80.45;101943.84;5057177;28;20552;-70
2024/03/06 10:05:34;;;;;;;5.93;2.33;;;;;;;7.36;80.01;101950.91;5057532;28;20449;-70
2024/03/06 10:08:03;;;;;;;6.97;2.70;;;;;;;7.47;80.37;101958.06;5056847;28;20446;-69
2024/03/06 10:10:30;;;;;;;5.73;3.00;;;;;;;7.58;80.30;101951.78;5057083;28;20532;-69
2024/03/06 10:12:59;;;;;;;6.20;2.97;;;;;;;7.61;78.98;101958.53;5056992;28;20545;-69
2024/03/06 10:15:28;;;;;;;8.70;3.17;;;;;;;7.62;79.22;101960.19;5056887;28;20442;-69
2024/03/06 10:18:11;;;;;;;8.40;4.07;;;;;;;7.69;80.11;101961.63;5057268;28;20446;-70
2024/03/06 10:20:39;;;;;;;7.77;3.20;;;;;;;7.78;79.72;101964.72;5057041;28;20418;-70
2024/03/06 10:23:07;;;;;;;5.10;2.17;;;;;;;7.86;79.47;101966.19;5056870;28;20509;-69
2024/03/06 10:25:34;;;;;;;10.20;3.60;;;;;;;7.88;79.21;101959.50;5056436;28;20449;-69
2024/03/06 10:28:05;;;;;;;7.97;3.57;;;;;;;7.81;79.23;101965.03;5056813;28;20468;-69
2024/03/06 10:30:32;;;;;;;9.93;3.93;;;;;;;7.70;79.79;101959.75;5056735;28;20453;-70
2024/03/06 10:32:59;;;;;;;10.27;5.10;;;;;;;7.61;79.75;101961.22;5056484;28;20553;-69
2024/03/06 10:35:26;;;;;;;6.43;2.70;;;;;;;7.52;80.15;101963.53;5056899;28;20448;-69
2024/03/06 10:37:55;;;;;;;8.40;3.97;;;;;;;7.30;81.14;101953.50;5056571;28;20972;-68
2024/03/06 10:40:23;;;;;;;7.13;2.97;;;;;;;7.13;83.54;101955.38;5056670;28;20456;-69
2024/03/06 10:42:52;;;;;;;6.13;2.90;;;;;;;7.18;82.98;101960.03;5056414;28;20454;-69
2024/03/06 10:45:23;;;;;;;6.13;3.20;;;;;;;7.27;83.00;101963.97;5056446;28;20430;-69
2024/03/06 10:47:51;;;;;;;6.17;3.17;;;;;;;7.39;83.17;101955.78;5056460;28;20458;-69
2024/03/06 10:50:20;;;;;;;4.77;2.20;;;;;;;7.61;81.40;101961.22;5056312;28;20520;-70
2024/03/06 10:52:48;;;;;;;6.20;3.20;;;;;;;7.71;79.87;101959.50;5056587;28;20458;-70
2024/03/06 10:55:17;;;;;;;5.97;3.00;;;;;;;7.99;78.52;101957.72;5056689;28;20517;-70
2024/03/06 10:57:44;;;;;;;6.13;3.23;;;;;;;8.27;78.39;101959.44;5055880;28;21072;-69
2024/03/06 11:00:15;;;;;;;6.57;2.73;;;;;;;8.62;76.13;101959.06;5056405;28;20530;-69
2024/03/06 11:02:43;;;;;;;6.17;3.13;;;;;;;9.03;74.38;101965.69;5056495;28;20469;-70
2024/03/06 11:05:11;;;;;;;7.07;3.77;;;;;;;9.20;69.55;101965.56;5056131;28;20438;-70
2024/03/06 11:07:38;;;;;;;9.57;3.40;;;;;;;9.09;68.81;101966.56;5055990;28;20442;-69
2024/03/06 11:10:05;;;;;;;9.43;3.80;;;;;;;8.97;69.42;101964.00;5056422;28;20444;-70
2024/03/06 11:12:38;;;;;;;9.30;4.57;;;;;;;8.91;70.83;101962.34;5055970;28;20888;-70
2024/03/06 11:15:11;;;;;;;11.17;5.80;;;;;;;8.80;70.77;101972.22;5056273;28;20423;-70
2024/03/06 11:17:38;;;;;;;9.70;4.80;;;;;;;8.57;73.38;101961.72;5055884;28;20483;-69
2024/03/06 11:20:16;;;;;;;11.90;5.30;;;;;;;8.25;76.38;101961.56;5055810;28;20466;-69
2024/03/06 11:23:11;;;;;;;7.77;3.97;;;;;;;8.01;77.81;101958.28;5055398;28;20557;-69
2024/03/06 11:26:05;;;;;;;10.33;4.40;;;;;;;8.06;79.30;101961.06;5056066;28;20509;-69
2024/03/06 11:28:35;;;;;;;9.20;3.80;;;;;;;8.19;78.59;101957.16;5056121;28;20525;-70